createdAt,value
2022-10-19T00:00:51.068Z,1005.52
2022-10-19T00:01:51.105Z,1005.55
2022-10-19T00:02:51.030Z,1005.52
2022-10-19T00:03:51.100Z,1005.53
2022-10-19T00:04:50.987Z,1005.54
2022-10-19T00:05:50.961Z,1005.55
2022-10-19T00:06:50.941Z,1005.55
2022-10-19T00:07:50.922Z,1005.52
2022-10-19T00:08:50.908Z,1005.55
2022-10-19T00:09:50.891Z,1005.54
2022-10-19T00:10:50.856Z,1005.53
2022-10-19T00:11:50.843Z,1005.52
2022-10-19T00:12:50.827Z,1005.46
2022-10-19T00:13:50.800Z,1005.51
2022-10-19T00:14:50.777Z,1005.52
2022-10-19T00:15:50.757Z,1005.53
2022-10-19T00:16:50.737Z,1005.48
2022-10-19T00:17:50.715Z,1005.53
2022-10-19T00:18:50.698Z,1005.51
2022-10-19T00:19:50.675Z,1005.52
2022-10-19T00:20:50.657Z,1005.49
2022-10-19T00:22:50.615Z,1005.51
2022-10-19T00:23:50.590Z,1005.50
2022-10-19T00:24:50.600Z,1005.48
2022-10-19T00:25:50.553Z,1005.47
2022-10-19T00:26:50.532Z,1005.46
2022-10-19T00:27:50.519Z,1005.43
2022-10-19T00:28:50.563Z,1005.44
2022-10-19T00:29:50.469Z,1005.44
2022-10-19T00:30:50.484Z,1005.44
2022-10-19T00:31:50.619Z,1005.43
2022-10-19T00:32:50.487Z,1005.47
2022-10-19T00:33:50.410Z,1005.43
2022-10-19T00:34:50.594Z,1005.43
2022-10-19T00:35:50.349Z,1005.44
2022-10-19T00:36:50.448Z,1005.42
2022-10-19T00:37:50.447Z,1005.47
2022-10-19T00:38:50.291Z,1005.41
2022-10-19T00:40:50.239Z,1005.42
2022-10-19T00:41:50.224Z,1005.41
2022-10-19T00:42:50.195Z,1005.44
2022-10-19T00:43:50.179Z,1005.42
2022-10-19T00:44:50.156Z,1005.42
2022-10-19T00:45:50.133Z,1005.41
2022-10-19T00:46:50.112Z,1005.45
2022-10-19T00:47:50.099Z,1005.44
2022-10-19T00:48:50.143Z,1005.40
2022-10-19T00:49:50.059Z,1005.41
2022-10-19T00:50:50.032Z,1005.41
2022-10-19T00:51:50.014Z,1005.36
2022-10-19T00:52:49.998Z,1005.33
2022-10-19T00:53:49.971Z,1005.34
2022-10-19T00:54:49.946Z,1005.33
2022-10-19T00:55:49.928Z,1005.33
2022-10-19T00:56:49.907Z,1005.32
2022-10-19T00:58:49.865Z,1005.32
2022-10-19T00:59:49.848Z,1005.30
2022-10-19T01:00:49.886Z,1005.34
2022-10-19T01:01:49.808Z,1005.30
2022-10-19T01:02:49.792Z,1005.29
2022-10-19T01:03:49.771Z,1005.28
2022-10-19T01:04:49.745Z,1005.25
2022-10-19T01:05:49.723Z,1005.21
2022-10-19T01:07:49.681Z,1005.19
2022-10-19T01:08:49.662Z,1005.23
2022-10-19T01:09:49.648Z,1005.23
2022-10-19T01:10:49.629Z,1005.22
2022-10-19T01:11:49.605Z,1005.20
2022-10-19T01:12:49.627Z,1005.16
2022-10-19T01:13:49.567Z,1005.18
2022-10-19T01:14:49.560Z,1005.17
2022-10-19T01:15:49.542Z,1005.17
2022-10-19T01:16:49.503Z,1005.13
2022-10-19T01:17:49.479Z,1005.13
2022-10-19T01:18:49.477Z,1005.11
2022-10-19T01:19:49.442Z,1005.08
2022-10-19T01:20:49.419Z,1005.10
2022-10-19T01:21:49.404Z,1005.08
2022-10-19T01:22:49.374Z,1005.09
2022-10-19T01:23:49.358Z,1005.07
2022-10-19T01:24:49.376Z,1005.09
2022-10-19T01:25:49.315Z,1005.09
2022-10-19T01:26:49.291Z,1005.10
2022-10-19T01:27:49.277Z,1005.05
2022-10-19T01:28:49.293Z,1005.10
2022-10-19T01:29:49.235Z,1005.11
2022-10-19T01:30:49.228Z,1005.09
2022-10-19T01:31:49.195Z,1005.12
2022-10-19T01:32:49.174Z,1005.11
2022-10-19T01:33:49.182Z,1005.09
2022-10-19T01:34:49.135Z,1005.10
2022-10-19T01:35:49.114Z,1005.07
2022-10-19T01:36:49.096Z,1005.08
2022-10-19T01:37:49.069Z,1005.06
2022-10-19T01:38:49.054Z,1005.05
2022-10-19T01:39:49.939Z,1005.07
2022-10-19T01:40:49.015Z,1005.07
2022-10-19T01:41:48.986Z,1005.01
2022-10-19T01:42:49.008Z,1005.07
2022-10-19T01:43:48.947Z,1005.09
2022-10-19T01:44:48.930Z,1005.08
2022-10-19T01:45:48.903Z,1005.10
2022-10-19T01:46:48.905Z,1005.04
2022-10-19T01:47:48.865Z,1005.07
2022-10-19T01:48:48.843Z,1005.05
2022-10-19T01:49:48.827Z,1005.05
2022-10-19T01:50:48.805Z,1004.99
2022-10-19T01:51:48.822Z,1004.98
2022-10-19T01:52:48.763Z,1004.98
2022-10-19T01:53:48.746Z,1004.95
2022-10-19T01:54:48.721Z,1004.92
2022-10-19T01:55:48.698Z,1004.93
2022-10-19T01:56:48.681Z,1004.93
2022-10-19T01:57:48.664Z,1004.92
2022-10-19T01:58:48.644Z,1004.91
2022-10-19T01:59:48.644Z,1004.92
2022-10-19T02:00:48.768Z,1004.91
2022-10-19T02:01:48.576Z,1004.93
2022-10-19T02:02:48.570Z,1004.88
2022-10-19T02:03:48.558Z,1004.89
2022-10-19T02:04:48.519Z,1004.85
2022-10-19T02:05:48.491Z,1004.83
2022-10-19T02:06:48.512Z,1004.85
2022-10-19T02:07:48.455Z,1004.88
2022-10-19T02:08:48.439Z,1004.83
2022-10-19T02:09:48.418Z,1004.89
2022-10-19T02:10:48.395Z,1004.86
2022-10-19T02:11:49.736Z,1004.85
2022-10-19T02:12:48.350Z,1004.86
2022-10-19T02:13:48.332Z,1004.87
2022-10-19T02:14:48.319Z,1004.87
2022-10-19T02:15:48.303Z,1004.84
2022-10-19T02:16:48.274Z,1004.83
2022-10-19T02:17:48.261Z,1004.84
2022-10-19T02:18:48.231Z,1004.84
2022-10-19T02:19:48.208Z,1004.83
2022-10-19T02:20:48.192Z,1004.82
2022-10-19T02:21:48.168Z,1004.84
2022-10-19T02:22:48.155Z,1004.86
2022-10-19T02:23:49.357Z,1004.84
2022-10-19T02:24:48.138Z,1004.86
2022-10-19T02:25:48.093Z,1004.85
2022-10-19T02:26:48.071Z,1004.84
2022-10-19T02:27:48.053Z,1004.83
2022-10-19T02:28:48.028Z,1004.84
2022-10-19T02:29:48.009Z,1004.86
2022-10-19T02:30:47.983Z,1004.87
2022-10-19T02:31:47.966Z,1004.88
2022-10-19T02:32:47.946Z,1004.90
2022-10-19T02:33:47.963Z,1004.86
2022-10-19T02:34:47.903Z,1004.86
2022-10-19T02:35:47.888Z,1004.87
2022-10-19T02:36:47.897Z,1004.84
2022-10-19T02:37:47.910Z,1004.86
2022-10-19T02:38:48.041Z,1004.84
2022-10-19T02:39:47.950Z,1004.87
2022-10-19T02:40:47.842Z,1004.86
2022-10-19T02:41:47.850Z,1004.85
2022-10-19T02:42:47.810Z,1004.87
2022-10-19T02:43:47.755Z,1004.87
2022-10-19T02:44:47.702Z,1004.86
2022-10-19T02:45:47.678Z,1004.89
2022-10-19T02:46:47.662Z,1004.86
2022-10-19T02:47:47.636Z,1004.86
2022-10-19T02:48:47.640Z,1004.84
2022-10-19T02:49:47.597Z,1004.78
2022-10-19T02:50:47.591Z,1004.79
2022-10-19T02:51:47.557Z,1004.76
2022-10-19T02:52:47.540Z,1004.75
2022-10-19T02:53:47.549Z,1004.76
2022-10-19T02:54:47.518Z,1004.74
2022-10-19T02:55:47.474Z,1004.72
2022-10-19T02:56:47.466Z,1004.73
2022-10-19T02:57:47.445Z,1004.67
2022-10-19T02:58:47.414Z,1004.67
2022-10-19T02:59:47.392Z,1004.64
2022-10-19T03:00:47.406Z,1004.65
2022-10-19T03:01:47.357Z,1004.63
2022-10-19T03:02:47.336Z,1004.60
2022-10-19T03:03:47.309Z,1004.61
2022-10-19T03:05:47.274Z,1004.59
2022-10-19T03:06:47.253Z,1004.60
2022-10-19T03:07:47.229Z,1004.59
2022-10-19T03:08:47.214Z,1004.58
2022-10-19T03:09:47.191Z,1004.56
2022-10-19T03:10:47.184Z,1004.61
2022-10-19T03:11:47.148Z,1004.59
2022-10-19T03:12:47.130Z,1004.56
2022-10-19T03:14:47.087Z,1004.60
2022-10-19T03:15:47.071Z,1004.63
2022-10-19T03:16:47.044Z,1004.63
2022-10-19T03:17:47.027Z,1004.65
2022-10-19T03:18:47.003Z,1004.63
2022-10-19T03:19:46.984Z,1004.64
2022-10-19T03:20:46.965Z,1004.62
2022-10-19T03:21:46.949Z,1004.63
2022-10-19T03:22:46.969Z,1004.65
2022-10-19T03:23:46.903Z,1004.64
2022-10-19T03:24:46.882Z,1004.62
2022-10-19T03:25:46.880Z,1004.57
2022-10-19T03:26:46.842Z,1004.57
2022-10-19T03:27:46.844Z,1004.59
2022-10-19T03:28:46.871Z,1004.60
2022-10-19T03:29:46.782Z,1004.58
2022-10-19T03:30:46.765Z,1004.60
2022-10-19T03:31:46.741Z,1004.53
2022-10-19T03:32:46.718Z,1004.52
2022-10-19T03:33:46.705Z,1004.53
2022-10-19T03:34:46.693Z,1004.53
2022-10-19T03:35:46.669Z,1004.58
2022-10-19T03:36:46.636Z,1004.55
2022-10-19T03:37:46.614Z,1004.56
2022-10-19T03:38:46.597Z,1004.57
2022-10-19T03:39:46.578Z,1004.56
2022-10-19T03:40:46.557Z,1004.58
2022-10-19T03:41:46.549Z,1004.55
2022-10-19T03:42:46.518Z,1004.57
2022-10-19T03:43:46.561Z,1004.54
2022-10-19T03:44:46.495Z,1004.55
2022-10-19T03:45:46.454Z,1004.55
2022-10-19T03:46:46.444Z,1004.56
2022-10-19T03:47:46.415Z,1004.56
2022-10-19T03:48:46.401Z,1004.57
2022-10-19T03:49:46.376Z,1004.57
2022-10-19T03:50:46.351Z,1004.58
2022-10-19T03:51:46.334Z,1004.60
2022-10-19T03:52:46.321Z,1004.56
2022-10-19T03:53:46.290Z,1004.58
2022-10-19T03:54:46.320Z,1004.58
2022-10-19T03:55:46.257Z,1004.58
2022-10-19T03:56:46.236Z,1004.56
2022-10-19T03:57:46.217Z,1004.61
2022-10-19T03:58:46.192Z,1004.64
2022-10-19T03:59:46.177Z,1004.63
2022-10-19T04:00:46.225Z,1004.64
2022-10-19T04:01:46.144Z,1004.59
2022-10-19T04:02:46.116Z,1004.60
2022-10-19T04:03:46.095Z,1004.62
2022-10-19T04:04:46.085Z,1004.60
2022-10-19T04:05:46.049Z,1004.63
2022-10-19T04:06:46.028Z,1004.62
2022-10-19T04:07:46.007Z,1004.58
2022-10-19T04:08:45.989Z,1004.60
2022-10-19T04:09:45.976Z,1004.60
2022-10-19T04:10:45.968Z,1004.59
2022-10-19T04:11:45.932Z,1004.60
2022-10-19T04:12:48.449Z,1004.53
2022-10-19T04:13:45.889Z,1004.53
2022-10-19T04:14:56.898Z,1004.54
2022-10-19T04:15:45.873Z,1004.52
2022-10-19T04:16:45.825Z,1004.53
2022-10-19T04:17:48.593Z,1004.51
2022-10-19T04:18:45.812Z,1004.53
2022-10-19T04:19:45.768Z,1004.52
2022-10-19T04:20:45.749Z,1004.53
2022-10-19T04:21:45.729Z,1004.52
2022-10-19T04:22:45.702Z,1004.51
2022-10-19T04:23:45.684Z,1004.50
2022-10-19T04:24:45.680Z,1004.43
2022-10-19T04:25:45.646Z,1004.49
2022-10-19T04:26:45.625Z,1004.49
2022-10-19T04:27:45.606Z,1004.46
2022-10-19T04:28:45.664Z,1004.45
2022-10-19T04:29:45.563Z,1004.43
2022-10-19T04:30:45.543Z,1004.41
2022-10-19T04:31:45.527Z,1004.42
2022-10-19T04:32:45.502Z,1004.39
2022-10-19T04:34:45.473Z,1004.35
2022-10-19T04:35:45.453Z,1004.34
2022-10-19T04:36:45.422Z,1004.42
2022-10-19T04:37:45.409Z,1004.39
2022-10-19T04:38:45.385Z,1004.39
2022-10-19T04:39:45.360Z,1004.39
2022-10-19T04:40:45.337Z,1004.41
2022-10-19T04:41:45.322Z,1004.37
2022-10-19T04:42:45.294Z,1004.42
2022-10-19T04:43:45.294Z,1004.41
2022-10-19T04:44:45.259Z,1004.41
2022-10-19T04:45:45.246Z,1004.42
2022-10-19T04:46:45.216Z,1004.43
2022-10-19T04:47:45.201Z,1004.46
2022-10-19T04:48:45.193Z,1004.44
2022-10-19T04:49:45.155Z,1004.47
2022-10-19T04:50:45.134Z,1004.45
2022-10-19T04:51:45.109Z,1004.48
2022-10-19T04:52:45.138Z,1004.49
2022-10-19T04:53:45.076Z,1004.46
2022-10-19T04:54:45.063Z,1004.48
2022-10-19T04:55:45.034Z,1004.49
2022-10-19T04:56:45.012Z,1004.50
2022-10-19T04:57:44.985Z,1004.50
2022-10-19T04:58:44.965Z,1004.49
2022-10-19T04:59:44.950Z,1004.49
2022-10-19T05:00:44.940Z,1004.53
2022-10-19T05:01:47.313Z,1004.56
2022-10-19T05:02:44.883Z,1004.57
2022-10-19T05:03:45.213Z,1004.56
2022-10-19T05:04:45.283Z,1004.61
2022-10-19T05:05:44.824Z,1004.60
2022-10-19T05:06:44.804Z,1004.60
2022-10-19T05:07:44.793Z,1004.60
2022-10-19T05:08:44.761Z,1004.60
2022-10-19T05:09:44.739Z,1004.63
2022-10-19T05:10:47.601Z,1004.64
2022-10-19T05:11:44.731Z,1004.64
2022-10-19T05:12:44.683Z,1004.64
2022-10-19T05:13:44.665Z,1004.65
2022-10-19T05:14:44.655Z,1004.66
2022-10-19T05:15:44.616Z,1004.61
2022-10-19T05:16:44.594Z,1004.62
2022-10-19T05:17:44.576Z,1004.67
2022-10-19T05:18:44.556Z,1004.60
2022-10-19T05:19:44.578Z,1004.58
2022-10-19T05:20:44.513Z,1004.59
2022-10-19T05:21:44.497Z,1004.59
2022-10-19T05:22:44.480Z,1004.54
2022-10-19T05:23:44.461Z,1004.55
2022-10-19T05:24:44.433Z,1004.55
2022-10-19T05:25:44.412Z,1004.56
2022-10-19T05:26:44.390Z,1004.54
2022-10-19T05:27:44.381Z,1004.51
2022-10-19T05:28:44.419Z,1004.55
2022-10-19T05:29:44.328Z,1004.54
2022-10-19T05:30:48.806Z,1004.54
2022-10-19T05:31:44.290Z,1004.48
2022-10-19T05:32:44.264Z,1004.46
2022-10-19T05:33:44.247Z,1004.48
2022-10-19T05:34:44.228Z,1004.49
2022-10-19T05:35:44.218Z,1004.44
2022-10-19T05:36:44.212Z,1004.45
2022-10-19T05:37:44.166Z,1004.43
2022-10-19T05:38:44.152Z,1004.41
2022-10-19T05:39:44.122Z,1004.40
2022-10-19T05:40:44.105Z,1004.40
2022-10-19T05:41:44.090Z,1004.42
2022-10-19T05:42:44.066Z,1004.39
2022-10-19T05:43:44.047Z,1004.37
2022-10-19T05:44:44.042Z,1004.36
2022-10-19T05:45:44.004Z,1004.33
2022-10-19T05:46:43.975Z,1004.34
2022-10-19T05:47:43.964Z,1004.34
2022-10-19T05:48:43.940Z,1004.36
2022-10-19T05:49:43.917Z,1004.31
2022-10-19T05:50:43.895Z,1004.33
2022-10-19T05:51:43.883Z,1004.34
2022-10-19T05:52:43.880Z,1004.33
2022-10-19T05:53:43.838Z,1004.31
2022-10-19T05:54:43.836Z,1004.32
2022-10-19T05:55:43.796Z,1004.33
2022-10-19T05:56:43.792Z,1004.30
2022-10-19T05:57:43.780Z,1004.29
2022-10-19T05:58:43.741Z,1004.31
2022-10-19T05:59:43.758Z,1004.31
2022-10-19T06:00:43.700Z,1004.32
2022-10-19T06:01:43.716Z,1004.33
2022-10-19T06:02:43.658Z,1004.34
2022-10-19T06:03:43.657Z,1004.36
2022-10-19T06:04:43.613Z,1004.36
2022-10-19T06:05:43.594Z,1004.34
2022-10-19T06:06:43.583Z,1004.37
2022-10-19T06:07:43.553Z,1004.38
2022-10-19T06:08:43.532Z,1004.41
2022-10-19T06:09:43.528Z,1004.40
2022-10-19T06:10:43.507Z,1004.39
2022-10-19T06:11:43.504Z,1004.42
2022-10-19T06:12:43.480Z,1004.41
2022-10-19T06:13:43.436Z,1004.41
2022-10-19T06:14:43.526Z,1004.42
2022-10-19T06:15:43.384Z,1004.38
2022-10-19T06:16:43.361Z,1004.39
2022-10-19T06:17:43.339Z,1004.41
2022-10-19T06:18:43.318Z,1004.40
2022-10-19T06:19:43.304Z,1004.42
2022-10-19T06:20:43.282Z,1004.43
2022-10-19T06:21:45.705Z,1004.47
2022-10-19T06:22:43.240Z,1004.45
2022-10-19T06:23:43.257Z,1004.49
2022-10-19T06:24:43.196Z,1004.51
2022-10-19T06:25:43.180Z,1004.51
2022-10-19T06:26:43.210Z,1004.51
2022-10-19T06:27:43.202Z,1004.52
2022-10-19T06:28:43.134Z,1004.52
2022-10-19T06:29:43.094Z,1004.49
2022-10-19T06:30:43.153Z,1004.54
2022-10-19T06:31:43.076Z,1004.52
2022-10-19T06:32:43.041Z,1004.55
2022-10-19T06:33:44.222Z,1004.54
2022-10-19T06:34:42.989Z,1004.58
2022-10-19T06:35:42.978Z,1004.62
2022-10-19T06:36:42.951Z,1004.60
2022-10-19T06:37:42.928Z,1004.62
2022-10-19T06:38:42.904Z,1004.63
2022-10-19T06:39:42.931Z,1004.66
2022-10-19T06:40:42.885Z,1004.67
2022-10-19T06:41:42.851Z,1004.63
2022-10-19T06:42:42.836Z,1004.63
2022-10-19T06:43:42.814Z,1004.65
2022-10-19T06:44:42.787Z,1004.64
2022-10-19T06:45:42.765Z,1004.66
2022-10-19T06:46:42.755Z,1004.66
2022-10-19T06:47:42.756Z,1004.66
2022-10-19T06:48:42.704Z,1004.66
2022-10-19T06:49:42.694Z,1004.67
2022-10-19T06:50:42.667Z,1004.70
2022-10-19T06:51:42.643Z,1004.67
2022-10-19T06:52:42.619Z,1004.65
2022-10-19T06:53:42.603Z,1004.71
2022-10-19T06:54:42.578Z,1004.69
2022-10-19T06:55:42.571Z,1004.70
2022-10-19T06:56:42.586Z,1004.68
2022-10-19T06:57:42.525Z,1004.71
2022-10-19T06:58:42.502Z,1004.71
2022-10-19T06:59:42.483Z,1004.72
2022-10-19T07:00:42.497Z,1004.72
2022-10-19T07:01:42.440Z,1004.69
2022-10-19T07:02:42.425Z,1004.76
2022-10-19T07:03:42.402Z,1004.72
2022-10-19T07:04:42.381Z,1004.73
2022-10-19T07:05:42.359Z,1004.68
2022-10-19T07:06:42.351Z,1004.70
2022-10-19T07:07:42.345Z,1004.66
2022-10-19T07:08:42.313Z,1004.67
2022-10-19T07:09:42.281Z,1004.68
2022-10-19T07:10:42.266Z,1004.64
2022-10-19T07:11:45.983Z,1004.64
2022-10-19T07:12:42.217Z,1004.68
2022-10-19T07:13:42.215Z,1004.70
2022-10-19T07:14:42.177Z,1004.70
2022-10-19T07:15:42.164Z,1004.76
2022-10-19T07:16:42.134Z,1004.74
2022-10-19T07:17:42.120Z,1004.79
2022-10-19T07:18:42.091Z,1004.74
2022-10-19T07:19:42.077Z,1004.75
2022-10-19T07:20:42.067Z,1004.72
2022-10-19T07:21:42.038Z,1004.75
2022-10-19T07:22:42.053Z,1004.74
2022-10-19T07:23:42.007Z,1004.78
2022-10-19T07:24:41.974Z,1004.74
2022-10-19T07:25:41.959Z,1004.76
2022-10-19T07:26:41.937Z,1004.78
2022-10-19T07:27:42.270Z,1004.77
2022-10-19T07:28:41.895Z,1004.76
2022-10-19T07:29:41.883Z,1004.76
2022-10-19T07:30:41.894Z,1004.77
2022-10-19T07:31:41.857Z,1004.72
2022-10-19T07:32:46.665Z,1004.75
2022-10-19T07:33:41.804Z,1004.74
2022-10-19T07:34:41.779Z,1004.72
2022-10-19T07:35:41.769Z,1004.78
2022-10-19T07:36:41.737Z,1004.80
2022-10-19T07:37:41.724Z,1004.79
2022-10-19T07:38:41.708Z,1004.77
2022-10-19T07:39:41.691Z,1004.79
2022-10-19T07:40:44.858Z,1004.81
2022-10-19T07:41:41.647Z,1004.79
2022-10-19T07:42:41.642Z,1004.81
2022-10-19T07:43:41.605Z,1004.87
2022-10-19T07:44:41.582Z,1004.88
2022-10-19T07:45:41.567Z,1004.84
2022-10-19T07:46:41.539Z,1004.83
2022-10-19T07:47:41.518Z,1004.86
2022-10-19T07:48:41.505Z,1004.88
2022-10-19T07:49:41.490Z,1004.90
2022-10-19T07:50:41.465Z,1004.88
2022-10-19T07:51:41.444Z,1004.90
2022-10-19T07:52:41.811Z,1004.90
2022-10-19T07:53:41.401Z,1004.91
2022-10-19T07:54:41.385Z,1004.94
2022-10-19T07:55:41.365Z,1004.96
2022-10-19T07:56:41.345Z,1004.90
2022-10-19T07:57:43.637Z,1004.92
2022-10-19T07:58:41.312Z,1004.93
2022-10-19T07:59:41.289Z,1004.91
2022-10-19T08:00:41.361Z,1004.94
2022-10-19T08:01:41.364Z,1004.90
2022-10-19T08:02:59.789Z,1004.93
2022-10-19T08:05:01.311Z,1004.92
2022-10-19T08:05:41.171Z,1004.87
2022-10-19T08:06:41.149Z,1004.91
2022-10-19T08:07:41.131Z,1004.92
2022-10-19T08:08:41.180Z,1004.93
2022-10-19T08:09:52.905Z,1004.90
2022-10-19T08:10:41.082Z,1004.92
2022-10-19T08:11:41.089Z,1004.91
2022-10-19T08:12:41.028Z,1004.92
2022-10-19T08:13:41.014Z,1004.91
2022-10-19T08:14:40.990Z,1004.89
2022-10-19T08:15:40.977Z,1004.89
2022-10-19T08:16:40.959Z,1004.91
2022-10-19T08:17:40.938Z,1004.94
2022-10-19T08:18:40.935Z,1004.90
2022-10-19T08:19:40.894Z,1004.96
2022-10-19T08:20:40.876Z,1004.93
2022-10-19T08:21:40.854Z,1004.95
2022-10-19T08:22:40.837Z,1004.93
2022-10-19T08:23:40.818Z,1004.96
2022-10-19T08:24:40.801Z,1004.94
2022-10-19T08:25:40.783Z,1004.94
2022-10-19T08:26:40.759Z,1004.92
2022-10-19T08:27:40.778Z,1004.93
2022-10-19T08:28:40.723Z,1004.87
2022-10-19T08:29:40.705Z,1004.90
2022-10-19T08:30:40.678Z,1004.91
2022-10-19T08:31:40.668Z,1004.91
2022-10-19T08:32:40.654Z,1004.92
2022-10-19T08:33:40.623Z,1004.90
2022-10-19T08:34:40.603Z,1004.93
2022-10-19T08:35:40.603Z,1004.93
2022-10-19T08:37:45.363Z,1004.90
2022-10-19T08:38:40.532Z,1004.90
2022-10-19T08:39:41.649Z,1004.92
2022-10-19T08:40:40.765Z,1004.89
2022-10-19T08:41:40.585Z,1004.91
2022-10-19T08:42:40.451Z,1004.87
2022-10-19T08:43:40.448Z,1004.89
2022-10-19T08:44:40.414Z,1004.88
2022-10-19T08:46:40.373Z,1004.90
2022-10-19T08:47:40.356Z,1004.87
2022-10-19T08:48:40.349Z,1004.88
2022-10-19T08:49:40.314Z,1004.84
2022-10-19T08:50:40.290Z,1004.85
2022-10-19T08:51:40.268Z,1004.75
2022-10-19T08:52:40.254Z,1004.76
2022-10-19T08:53:40.244Z,1004.73
2022-10-19T08:54:40.262Z,1004.69
2022-10-19T08:55:40.198Z,1004.70
2022-10-19T08:56:50.446Z,1004.72
2022-10-19T08:57:40.158Z,1004.71
2022-10-19T08:58:40.135Z,1004.73
2022-10-19T08:59:40.134Z,1004.71
2022-10-19T09:01:40.081Z,1004.71
2022-10-19T09:02:40.072Z,1004.70
2022-10-19T09:03:56.384Z,1004.70
2022-10-19T09:04:40.023Z,1004.70
2022-10-19T09:05:40.007Z,1004.67
2022-10-19T09:06:39.989Z,1004.66
2022-10-19T09:07:39.965Z,1004.70
2022-10-19T09:08:39.993Z,1004.70
2022-10-19T09:09:39.997Z,1004.71
2022-10-19T09:10:39.911Z,1004.72
2022-10-19T09:11:39.895Z,1004.72
2022-10-19T09:12:39.872Z,1004.70
2022-10-19T09:13:41.718Z,1004.68
2022-10-19T09:14:39.829Z,1004.65
2022-10-19T09:15:39.808Z,1004.61
2022-10-19T09:16:39.797Z,1004.63
2022-10-19T09:17:39.782Z,1004.64
2022-10-19T09:18:39.789Z,1004.60
2022-10-19T09:19:39.734Z,1004.60
2022-10-19T09:20:39.730Z,1004.62
2022-10-19T09:21:47.003Z,1004.59
2022-10-19T09:22:39.722Z,1004.61
2022-10-19T09:23:39.670Z,1004.60
2022-10-19T09:24:39.649Z,1004.57
2022-10-19T09:25:39.629Z,1004.58
2022-10-19T09:26:39.608Z,1004.56
2022-10-19T09:27:39.594Z,1004.57
2022-10-19T09:28:40.172Z,1004.57
2022-10-19T09:29:39.547Z,1004.59
2022-10-19T09:30:39.532Z,1004.59
2022-10-19T09:31:40.681Z,1004.57
2022-10-19T09:32:39.497Z,1004.58
2022-10-19T09:33:39.479Z,1004.61
2022-10-19T09:34:39.454Z,1004.56
2022-10-19T09:35:39.438Z,1004.53
2022-10-19T09:36:50.452Z,1004.57
2022-10-19T09:37:39.412Z,1004.54
2022-10-19T09:38:39.386Z,1004.53
2022-10-19T09:39:41.059Z,1004.57
2022-10-19T09:40:39.357Z,1004.55
2022-10-19T09:41:39.331Z,1004.53
2022-10-19T09:42:39.306Z,1004.51
2022-10-19T09:43:39.318Z,1004.57
2022-10-19T09:44:39.303Z,1004.58
2022-10-19T09:45:39.271Z,1004.59
2022-10-19T09:46:39.294Z,1004.58
2022-10-19T09:47:39.327Z,1004.57
2022-10-19T09:48:39.220Z,1004.56
2022-10-19T09:49:39.178Z,1004.58
2022-10-19T09:50:39.164Z,1004.56
2022-10-19T09:51:39.143Z,1004.55
2022-10-19T09:52:39.129Z,1004.56
2022-10-19T09:53:39.111Z,1004.57
2022-10-19T09:54:39.090Z,1004.56
2022-10-19T09:55:39.104Z,1004.57
2022-10-19T09:56:39.051Z,1004.54
2022-10-19T09:57:39.035Z,1004.58
2022-10-19T09:58:39.016Z,1004.56
2022-10-19T09:59:38.996Z,1004.56
2022-10-19T10:00:38.977Z,1004.57
2022-10-19T10:01:43.031Z,1004.56
2022-10-19T10:02:39.267Z,1004.60
2022-10-19T10:03:38.922Z,1004.54
2022-10-19T10:04:38.917Z,1004.55
2022-10-19T10:05:38.885Z,1004.54
2022-10-19T10:06:38.875Z,1004.54
2022-10-19T10:07:38.846Z,1004.54
2022-10-19T10:08:38.883Z,1004.60
2022-10-19T10:09:38.818Z,1004.59
2022-10-19T10:10:38.798Z,1004.56
2022-10-19T10:11:38.794Z,1004.58
2022-10-19T10:12:38.754Z,1004.60
2022-10-19T10:13:38.735Z,1004.59
2022-10-19T10:14:38.728Z,1004.60
2022-10-19T10:15:38.710Z,1004.63
2022-10-19T10:16:38.683Z,1004.65
2022-10-19T10:17:38.669Z,1004.64
2022-10-19T10:18:38.656Z,1004.63
2022-10-19T10:19:38.652Z,1004.62
2022-10-19T10:20:38.620Z,1004.61
2022-10-19T10:21:38.591Z,1004.57
2022-10-19T10:22:38.576Z,1004.57
2022-10-19T10:23:38.567Z,1004.61
2022-10-19T10:24:38.546Z,1004.60
2022-10-19T10:25:38.535Z,1004.60
2022-10-19T10:26:38.579Z,1004.61
2022-10-19T10:27:38.499Z,1004.60
2022-10-19T10:28:38.475Z,1004.59
2022-10-19T10:29:38.452Z,1004.58
2022-10-19T10:30:38.443Z,1004.61
2022-10-19T10:31:38.420Z,1004.58
2022-10-19T10:32:38.409Z,1004.61
2022-10-19T10:33:45.110Z,1004.62
2022-10-19T10:34:49.319Z,1004.61
2022-10-19T10:35:38.350Z,1004.63
2022-10-19T10:36:38.330Z,1004.62
2022-10-19T10:37:38.310Z,1004.60
2022-10-19T10:38:38.294Z,1004.58
2022-10-19T10:39:38.291Z,1004.59
2022-10-19T10:40:38.279Z,1004.56
2022-10-19T10:41:38.248Z,1004.57
2022-10-19T10:42:38.228Z,1004.57
2022-10-19T10:43:38.199Z,1004.53
2022-10-19T10:44:38.193Z,1004.55
2022-10-19T10:45:38.175Z,1004.49
2022-10-19T10:46:38.153Z,1004.47
2022-10-19T10:47:38.131Z,1004.47
2022-10-19T10:48:38.125Z,1004.44
2022-10-19T10:49:38.097Z,1004.47
2022-10-19T10:50:38.080Z,1004.40
2022-10-19T10:51:38.064Z,1004.44
2022-10-19T10:52:38.295Z,1004.42
2022-10-19T10:53:38.052Z,1004.43
2022-10-19T10:54:38.012Z,1004.43
2022-10-19T10:55:38.000Z,1004.47
2022-10-19T10:56:37.985Z,1004.50
2022-10-19T10:57:37.954Z,1004.51
2022-10-19T10:58:37.945Z,1004.50
2022-10-19T10:59:41.646Z,1004.47
2022-10-19T11:00:37.902Z,1004.48
2022-10-19T11:01:37.945Z,1004.46
2022-10-19T11:02:37.872Z,1004.46
2022-10-19T11:03:37.857Z,1004.43
2022-10-19T11:04:37.842Z,1004.45
2022-10-19T11:05:37.830Z,1004.43
2022-10-19T11:06:39.606Z,1004.39
2022-10-19T11:07:38.139Z,1004.41
2022-10-19T11:08:37.817Z,1004.41
2022-10-19T11:09:37.745Z,1004.36
2022-10-19T11:10:37.736Z,1004.36
2022-10-19T11:11:37.716Z,1004.40
2022-10-19T11:12:37.706Z,1004.35
2022-10-19T11:13:37.698Z,1004.36
2022-10-19T11:14:37.681Z,1004.32
2022-10-19T11:15:37.640Z,1004.33
2022-10-19T11:16:37.629Z,1004.32
2022-10-19T11:17:37.720Z,1004.29
2022-10-19T11:18:37.602Z,1004.31
2022-10-19T11:19:37.570Z,1004.29
2022-10-19T11:20:37.569Z,1004.28
2022-10-19T11:21:37.531Z,1004.27
2022-10-19T11:22:37.886Z,1004.27
2022-10-19T11:23:37.498Z,1004.27
2022-10-19T11:24:37.500Z,1004.22
2022-10-19T11:25:37.464Z,1004.20
2022-10-19T11:26:37.458Z,1004.17
2022-10-19T11:27:37.917Z,1004.16
2022-10-19T11:28:37.418Z,1004.15
2022-10-19T11:29:37.410Z,1004.12
2022-10-19T11:30:41.597Z,1004.10
2022-10-19T11:31:37.362Z,1004.11
2022-10-19T11:32:37.630Z,1004.11
2022-10-19T11:33:37.351Z,1004.08
2022-10-19T11:34:37.304Z,1004.05
2022-10-19T11:35:37.289Z,1004.04
2022-10-19T11:36:37.267Z,1004.02
2022-10-19T11:37:45.502Z,1003.99
2022-10-19T11:38:37.230Z,1003.99
2022-10-19T11:39:37.217Z,1003.99
2022-10-19T11:40:38.454Z,1003.99
2022-10-19T11:41:37.201Z,1003.98
2022-10-19T11:42:37.196Z,1003.98
2022-10-19T11:43:37.151Z,1003.93
2022-10-19T11:44:37.117Z,1003.91
2022-10-19T11:45:37.099Z,1003.88
2022-10-19T11:46:37.098Z,1003.90
2022-10-19T11:47:37.395Z,1003.87
2022-10-19T11:48:39.344Z,1003.84
2022-10-19T11:49:37.034Z,1003.85
2022-10-19T11:50:37.010Z,1003.82
2022-10-19T11:51:37.005Z,1003.82
2022-10-19T11:52:37.226Z,1003.80
2022-10-19T11:53:36.964Z,1003.81
2022-10-19T11:54:36.995Z,1003.79
2022-10-19T11:55:36.929Z,1003.74
2022-10-19T11:56:58.116Z,1003.73
2022-10-19T11:57:37.137Z,1003.68
2022-10-19T11:58:36.865Z,1003.69
2022-10-19T11:59:36.846Z,1003.65
2022-10-19T12:00:39.568Z,1003.64
2022-10-19T12:01:36.848Z,1003.63
2022-10-19T12:02:37.244Z,1003.60
2022-10-19T12:03:36.772Z,1003.64
2022-10-19T12:04:36.746Z,1003.62
2022-10-19T12:05:36.734Z,1003.63
2022-10-19T12:06:36.715Z,1003.61
2022-10-19T12:07:36.696Z,1003.62
2022-10-19T12:08:36.866Z,1003.59
2022-10-19T12:09:36.659Z,1003.62
2022-10-19T12:10:36.638Z,1003.61
2022-10-19T12:11:36.618Z,1003.56
2022-10-19T12:12:36.844Z,1003.58
2022-10-19T12:13:36.574Z,1003.57
2022-10-19T12:14:36.600Z,1003.59
2022-10-19T12:15:36.548Z,1003.60
2022-10-19T12:16:36.526Z,1003.57